sensor_id;sensor_type;location;lat;lon;timestamp;temperature;humidity
23186;DHT22;11761;51.324;4.590;2023-04-01T00:01:02;9.50;99.90
23186;DHT22;11761;51.324;4.590;2023-04-01T00:03:29;9.50;99.90
23186;DHT22;11761;51.324;4.590;2023-04-01T00:05:57;9.50;99.90
23186;DHT22;11761;51.324;4.590;2023-04-01T00:08:25;9.50;99.90
23186;DHT22;11761;51.324;4.590;2023-04-01T00:10:52;9.60;99.90
23186;DHT22;11761;51.324;4.590;2023-04-01T00:13:19;9.60;99.90
23186;DHT22;11761;51.324;4.590;2023-04-01T00:15:46;9.60;99.90
23186;DHT22;11761;51.324;4.590;2023-04-01T00:18:12;9.60;99.90
23186;DHT22;11761;51.324;4.590;2023-04-01T00:20:43;9.60;99.90
23186;DHT22;11761;51.324;4.590;2023-04-01T00:23:09;9.60;99.90
23186;DHT22;11761;51.324;4.590;2023-04-01T00:25:36;9.60;99.90
23186;DHT22;11761;51.324;4.590;2023-04-01T00:28:02;9.60;99.90
23186;DHT22;11761;51.324;4.590;2023-04-01T00:30:28;9.50;99.90
23186;DHT22;11761;51.324;4.590;2023-04-01T00:32:54;9.50;99.90
23186;DHT22;11761;51.324;4.590;2023-04-01T00:35:20;9.50;99.90
23186;DHT22;11761;51.324;4.590;2023-04-01T00:37:46;9.50;99.90
23186;DHT22;11761;51.324;4.590;2023-04-01T00:40:28;9.50;99.90
23186;DHT22;11761;51.324;4.590;2023-04-01T00:42:54;9.50;99.90
23186;DHT22;11761;51.324;4.590;2023-04-01T00:45:28;9.50;99.90
23186;DHT22;11761;51.324;4.590;2023-04-01T00:47:54;9.50;99.90
23186;DHT22;11761;51.324;4.590;2023-04-01T00:50:22;9.50;99.90
23186;DHT22;11761;51.324;4.590;2023-04-01T00:52:50;9.50;99.90
23186;DHT22;11761;51.324;4.590;2023-04-01T00:55:17;9.40;99.90
23186;DHT22;11761;51.324;4.590;2023-04-01T00:57:45;9.40;99.90
23186;DHT22;11761;51.324;4.590;2023-04-01T01:00:13;9.40;99.90
23186;DHT22;11761;51.324;4.590;2023-04-01T01:02:45;9.40;99.90
23186;DHT22;11761;51.324;4.590;2023-04-01T01:05:13;9.40;99.90
23186;DHT22;11761;51.324;4.590;2023-04-01T01:10:24;9.40;99.90
23186;DHT22;11761;51.324;4.590;2023-04-01T01:13:04;9.40;99.90
23186;DHT22;11761;51.324;4.590;2023-04-01T01:16:09;9.40;99.90
23186;DHT22;11761;51.324;4.590;2023-04-01T01:19:16;9.40;99.90
23186;DHT22;11761;51.324;4.590;2023-04-01T01:24:27;9.40;99.90
23186;DHT22;11761;51.324;4.590;2023-04-01T01:27:10;9.40;99.90
23186;DHT22;11761;51.324;4.590;2023-04-01T01:33:11;9.40;99.90
23186;DHT22;11761;51.324;4.590;2023-04-01T01:38:13;9.30;99.90
23186;DHT22;11761;51.324;4.590;2023-04-01T01:40:44;9.30;99.90
23186;DHT22;11761;51.324;4.590;2023-04-01T01:43:14;9.30;99.90
23186;DHT22;11761;51.324;4.590;2023-04-01T01:45:48;9.30;99.90
23186;DHT22;11761;51.324;4.590;2023-04-01T01:48:16;9.30;99.90
23186;DHT22;11761;51.324;4.590;2023-04-01T01:50:44;9.30;99.90
23186;DHT22;11761;51.324;4.590;2023-04-01T01:53:12;9.20;99.90
23186;DHT22;11761;51.324;4.590;2023-04-01T01:55:41;9.20;99.90
23186;DHT22;11761;51.324;4.590;2023-04-01T01:58:10;9.20;99.90
23186;DHT22;11761;51.324;4.590;2023-04-01T02:00:38;9.20;99.90
23186;DHT22;11761;51.324;4.590;2023-04-01T02:03:06;9.20;99.90
23186;DHT22;11761;51.324;4.590;2023-04-01T02:05:32;9.20;99.90
23186;DHT22;11761;51.324;4.590;2023-04-01T02:08:06;9.20;99.90
23186;DHT22;11761;51.324;4.590;2023-04-01T02:10:36;9.20;99.90
23186;DHT22;11761;51.324;4.590;2023-04-01T02:13:08;9.20;99.90
23186;DHT22;11761;51.324;4.590;2023-04-01T02:15:41;9.20;99.90
23186;DHT22;11761;51.324;4.590;2023-04-01T02:18:09;9.20;99.90
23186;DHT22;11761;51.324;4.590;2023-04-01T02:20:37;9.20;99.90
23186;DHT22;11761;51.324;4.590;2023-04-01T02:23:05;9.20;99.90
23186;DHT22;11761;51.324;4.590;2023-04-01T02:25:35;9.20;99.90
23186;DHT22;11761;51.324;4.590;2023-04-01T02:28:04;9.20;99.90
23186;DHT22;11761;51.324;4.590;2023-04-01T02:30:34;9.20;99.90
23186;DHT22;11761;51.324;4.590;2023-04-01T02:33:01;9.20;99.90
23186;DHT22;11761;51.324;4.590;2023-04-01T02:35:28;9.20;99.90
23186;DHT22;11761;51.324;4.590;2023-04-01T02:37:55;9.20;99.90
23186;DHT22;11761;51.324;4.590;2023-04-01T02:40:21;9.20;99.90
23186;DHT22;11761;51.324;4.590;2023-04-01T02:42:48;9.10;99.90
23186;DHT22;11761;51.324;4.590;2023-04-01T02:45:14;9.10;99.90
23186;DHT22;11761;51.324;4.590;2023-04-01T02:47:41;9.10;99.90
23186;DHT22;11761;51.324;4.590;2023-04-01T02:50:08;9.10;99.90
23186;DHT22;11761;51.324;4.590;2023-04-01T02:52:34;9.10;99.90
23186;DHT22;11761;51.324;4.590;2023-04-01T02:55:00;9.20;99.90
23186;DHT22;11761;51.324;4.590;2023-04-01T02:57:26;9.10;99.90
23186;DHT22;11761;51.324;4.590;2023-04-01T02:59:53;9.20;99.90
23186;DHT22;11761;51.324;4.590;2023-04-01T03:02:19;9.10;99.90
23186;DHT22;11761;51.324;4.590;2023-04-01T03:04:45;9.10;99.90
23186;DHT22;11761;51.324;4.590;2023-04-01T03:07:11;9.10;99.90
23186;DHT22;11761;51.324;4.590;2023-04-01T03:09:38;9.10;99.90
23186;DHT22;11761;51.324;4.590;2023-04-01T03:12:05;9.10;99.90
23186;DHT22;11761;51.324;4.590;2023-04-01T03:14:31;9.10;99.90
23186;DHT22;11761;51.324;4.590;2023-04-01T03:16:57;9.10;99.90
23186;DHT22;11761;51.324;4.590;2023-04-01T03:19:23;9.10;99.90
23186;DHT22;11761;51.324;4.590;2023-04-01T03:21:49;9.10;99.90
23186;DHT22;11761;51.324;4.590;2023-04-01T03:24:15;9.00;99.90
23186;DHT22;11761;51.324;4.590;2023-04-01T03:26:41;9.00;99.90
23186;DHT22;11761;51.324;4.590;2023-04-01T03:29:07;9.00;99.90
23186;DHT22;11761;51.324;4.590;2023-04-01T03:31:34;9.00;99.90
23186;DHT22;11761;51.324;4.590;2023-04-01T03:34:00;9.00;99.90
23186;DHT22;11761;51.324;4.590;2023-04-01T03:36:26;9.00;99.90
23186;DHT22;11761;51.324;4.590;2023-04-01T03:38:52;9.00;99.90
23186;DHT22;11761;51.324;4.590;2023-04-01T03:41:18;9.00;99.90
23186;DHT22;11761;51.324;4.590;2023-04-01T03:43:44;9.00;99.90
23186;DHT22;11761;51.324;4.590;2023-04-01T03:46:10;9.00;99.90
23186;DHT22;11761;51.324;4.590;2023-04-01T03:48:36;9.00;99.90
23186;DHT22;11761;51.324;4.590;2023-04-01T03:51:07;9.00;99.90
23186;DHT22;11761;51.324;4.590;2023-04-01T03:53:33;9.00;99.90
23186;DHT22;11761;51.324;4.590;2023-04-01T03:56:03;9.00;99.90
23186;DHT22;11761;51.324;4.590;2023-04-01T03:58:29;9.00;99.90
23186;DHT22;11761;51.324;4.590;2023-04-01T04:00:56;8.90;99.90
23186;DHT22;11761;51.324;4.590;2023-04-01T04:03:22;9.00;99.90
23186;DHT22;11761;51.324;4.590;2023-04-01T04:05:49;8.90;99.90
23186;DHT22;11761;51.324;4.590;2023-04-01T04:08:16;8.90;99.90
23186;DHT22;11761;51.324;4.590;2023-04-01T04:10:42;9.00;99.90
23186;DHT22;11761;51.324;4.590;2023-04-01T04:13:09;8.90;99.90
23186;DHT22;11761;51.324;4.590;2023-04-01T04:15:35;9.00;99.90
23186;DHT22;11761;51.324;4.590;2023-04-01T04:18:01;8.90;99.90
23186;DHT22;11761;51.324;4.590;2023-04-01T04:20:27;8.90;99.90
23186;DHT22;11761;51.324;4.590;2023-04-01T04:22:53;8.90;99.90
23186;DHT22;11761;51.324;4.590;2023-04-01T04:25:19;8.90;99.90
23186;DHT22;11761;51.324;4.590;2023-04-01T04:27:45;8.90;99.90
23186;DHT22;11761;51.324;4.590;2023-04-01T04:30:11;8.90;99.90
23186;DHT22;11761;51.324;4.590;2023-04-01T04:32:37;8.90;99.90
23186;DHT22;11761;51.324;4.590;2023-04-01T04:35:04;8.90;99.90
23186;DHT22;11761;51.324;4.590;2023-04-01T04:37:33;8.90;99.90
23186;DHT22;11761;51.324;4.590;2023-04-01T04:39:59;8.90;99.90
23186;DHT22;11761;51.324;4.590;2023-04-01T04:42:25;8.90;99.90
23186;DHT22;11761;51.324;4.590;2023-04-01T04:44:51;8.90;99.90
23186;DHT22;11761;51.324;4.590;2023-04-01T04:47:17;8.90;99.90
23186;DHT22;11761;51.324;4.590;2023-04-01T04:49:43;8.90;99.90
23186;DHT22;11761;51.324;4.590;2023-04-01T04:52:09;8.90;99.90
23186;DHT22;11761;51.324;4.590;2023-04-01T04:54:35;8.90;99.90
23186;DHT22;11761;51.324;4.590;2023-04-01T04:57:01;8.90;99.90
23186;DHT22;11761;51.324;4.590;2023-04-01T04:59:28;8.90;99.90
23186;DHT22;11761;51.324;4.590;2023-04-01T05:01:54;8.90;99.90
23186;DHT22;11761;51.324;4.590;2023-04-01T05:04:20;8.90;99.90
23186;DHT22;11761;51.324;4.590;2023-04-01T05:06:46;8.90;99.90
23186;DHT22;11761;51.324;4.590;2023-04-01T05:09:12;8.90;99.90
23186;DHT22;11761;51.324;4.590;2023-04-01T05:11:38;8.90;99.90
23186;DHT22;11761;51.324;4.590;2023-04-01T05:14:04;8.90;99.90
23186;DHT22;11761;51.324;4.590;2023-04-01T05:16:30;8.90;99.90
23186;DHT22;11761;51.324;4.590;2023-04-01T05:18:57;8.90;99.90
23186;DHT22;11761;51.324;4.590;2023-04-01T05:21:23;8.90;99.90
23186;DHT22;11761;51.324;4.590;2023-04-01T05:23:49;8.80;99.90
23186;DHT22;11761;51.324;4.590;2023-04-01T05:26:15;8.90;99.90
23186;DHT22;11761;51.324;4.590;2023-04-01T05:28:41;8.90;99.90
23186;DHT22;11761;51.324;4.590;2023-04-01T05:31:08;8.90;99.90
23186;DHT22;11761;51.324;4.590;2023-04-01T05:33:35;8.90;99.90
23186;DHT22;11761;51.324;4.590;2023-04-01T05:36:14;8.80;99.90
23186;DHT22;11761;51.324;4.590;2023-04-01T05:38:41;8.90;99.90
23186;DHT22;11761;51.324;4.590;2023-04-01T05:41:08;8.80;99.90
23186;DHT22;11761;51.324;4.590;2023-04-01T05:43:37;8.90;99.90
23186;DHT22;11761;51.324;4.590;2023-04-01T05:46:04;8.90;99.90
23186;DHT22;11761;51.324;4.590;2023-04-01T05:48:33;8.90;99.90
23186;DHT22;11761;51.324;4.590;2023-04-01T05:51:01;8.90;99.90
23186;DHT22;11761;51.324;4.590;2023-04-01T05:53:29;8.90;99.90
23186;DHT22;11761;51.324;4.590;2023-04-01T05:55:55;8.90;99.90
23186;DHT22;11761;51.324;4.590;2023-04-01T05:58:21;8.90;99.90
23186;DHT22;11761;51.324;4.590;2023-04-01T06:00:46;8.90;99.90
23186;DHT22;11761;51.324;4.590;2023-04-01T06:03:12;8.90;99.90
23186;DHT22;11761;51.324;4.590;2023-04-01T06:05:41;8.90;99.90
23186;DHT22;11761;51.324;4.590;2023-04-01T06:08:14;8.90;99.90
23186;DHT22;11761;51.324;4.590;2023-04-01T06:18:57;9.00;99.90
23186;DHT22;11761;51.324;4.590;2023-04-01T06:39:30;9.00;99.90
23186;DHT22;11761;51.324;4.590;2023-04-01T06:44:59;9.00;99.90
23186;DHT22;11761;51.324;4.590;2023-04-01T06:53:24;9.10;99.90
23186;DHT22;11761;51.324;4.590;2023-04-01T06:56:19;9.10;99.90
23186;DHT22;11761;51.324;4.590;2023-04-01T06:58:49;9.10;99.90
23186;DHT22;11761;51.324;4.590;2023-04-01T07:01:22;9.20;99.90
23186;DHT22;11761;51.324;4.590;2023-04-01T07:03:57;9.20;99.90
23186;DHT22;11761;51.324;4.590;2023-04-01T07:06:32;9.20;99.90
23186;DHT22;11761;51.324;4.590;2023-04-01T07:09:10;9.30;99.90
23186;DHT22;11761;51.324;4.590;2023-04-01T07:11:39;9.30;99.90
23186;DHT22;11761;51.324;4.590;2023-04-01T07:14:30;9.30;99.90
23186;DHT22;11761;51.324;4.590;2023-04-01T07:17:11;9.20;99.90
23186;DHT22;11761;51.324;4.590;2023-04-01T07:22:55;9.30;99.90
23186;DHT22;11761;51.324;4.590;2023-04-01T07:25:28;9.30;99.90
23186;DHT22;11761;51.324;4.590;2023-04-01T07:28:03;9.30;99.90
23186;DHT22;11761;51.324;4.590;2023-04-01T07:31:25;9.30;99.90
23186;DHT22;11761;51.324;4.590;2023-04-01T07:34:05;9.30;99.90
23186;DHT22;11761;51.324;4.590;2023-04-01T07:44:28;9.30;99.90
23186;DHT22;11761;51.324;4.590;2023-04-01T07:47:19;9.30;99.90
23186;DHT22;11761;51.324;4.590;2023-04-01T08:02:05;9.50;99.90
23186;DHT22;11761;51.324;4.590;2023-04-01T08:06:56;9.50;99.90
23186;DHT22;11761;51.324;4.590;2023-04-01T08:20:47;9.60;99.90
23186;DHT22;11761;51.324;4.590;2023-04-01T08:23:19;9.60;99.90
23186;DHT22;11761;51.324;4.590;2023-04-01T08:26:01;9.50;99.90
23186;DHT22;11761;51.324;4.590;2023-04-01T08:31:09;9.50;99.90
23186;DHT22;11761;51.324;4.590;2023-04-01T08:33:38;9.50;99.90
23186;DHT22;11761;51.324;4.590;2023-04-01T08:36:15;9.60;99.90
23186;DHT22;11761;51.324;4.590;2023-04-01T08:38:55;9.60;99.90
23186;DHT22;11761;51.324;4.590;2023-04-01T08:55:48;9.60;99.90
23186;DHT22;11761;51.324;4.590;2023-04-01T08:58:37;9.50;99.90
23186;DHT22;11761;51.324;4.590;2023-04-01T09:01:13;9.60;99.90
23186;DHT22;11761;51.324;4.590;2023-04-01T09:06:37;9.60;99.90
23186;DHT22;11761;51.324;4.590;2023-04-01T09:15:07;9.50;99.90
23186;DHT22;11761;51.324;4.590;2023-04-01T09:18:28;9.50;99.90
23186;DHT22;11761;51.324;4.590;2023-04-01T09:31:58;9.60;99.90
23186;DHT22;11761;51.324;4.590;2023-04-01T09:40:37;9.80;99.90
23186;DHT22;11761;51.324;4.590;2023-04-01T09:45:44;9.70;99.90
23186;DHT22;11761;51.324;4.590;2023-04-01T09:48:25;9.60;99.90
23186;DHT22;11761;51.324;4.590;2023-04-01T09:51:13;9.90;99.90
23186;DHT22;11761;51.324;4.590;2023-04-01T09:54:19;9.90;99.90
23186;DHT22;11761;51.324;4.590;2023-04-01T10:00:34;10.00;99.90
23186;DHT22;11761;51.324;4.590;2023-04-01T10:06:25;9.80;99.90
23186;DHT22;11761;51.324;4.590;2023-04-01T10:12:02;9.90;99.90
23186;DHT22;11761;51.324;4.590;2023-04-01T10:25:42;9.90;99.90
23186;DHT22;11761;51.324;4.590;2023-04-01T10:36:52;10.20;99.90
23186;DHT22;11761;51.324;4.590;2023-04-01T11:42:00;10.30;99.90
23186;DHT22;11761;51.324;4.590;2023-04-01T11:44:30;10.30;99.90
23186;DHT22;11761;51.324;4.590;2023-04-01T11:52:47;10.60;99.90
23186;DHT22;11761;51.324;4.590;2023-04-01T11:55:35;10.40;99.90
23186;DHT22;11761;51.324;4.590;2023-04-01T12:09:12;10.50;99.90
23186;DHT22;11761;51.324;4.590;2023-04-01T12:15:18;10.60;99.90
23186;DHT22;11761;51.324;4.590;2023-04-01T12:20:45;10.50;99.90
23186;DHT22;11761;51.324;4.590;2023-04-01T12:23:37;10.40;99.90
23186;DHT22;11761;51.324;4.590;2023-04-01T12:26:25;10.50;99.90
23186;DHT22;11761;51.324;4.590;2023-04-01T12:32:02;10.70;99.90
23186;DHT22;11761;51.324;4.590;2023-04-01T12:45:35;10.60;99.90
23186;DHT22;11761;51.324;4.590;2023-04-01T12:48:20;10.50;99.90
23186;DHT22;11761;51.324;4.590;2023-04-01T13:10:13;10.60;99.90
23186;DHT22;11761;51.324;4.590;2023-04-01T13:16:32;10.50;99.90
23186;DHT22;11761;51.324;4.590;2023-04-01T13:18:56;10.60;99.90
23186;DHT22;11761;51.324;4.590;2023-04-01T13:24:19;10.40;99.90
23186;DHT22;11761;51.324;4.590;2023-04-01T13:27:21;10.40;99.90
23186;DHT22;11761;51.324;4.590;2023-04-01T13:35:44;10.20;99.90
23186;DHT22;11761;51.324;4.590;2023-04-01T13:38:46;10.20;99.90
23186;DHT22;11761;51.324;4.590;2023-04-01T13:41:26;10.10;99.90
23186;DHT22;11761;51.324;4.590;2023-04-01T13:44:07;10.10;99.90
23186;DHT22;11761;51.324;4.590;2023-04-01T13:51:58;10.10;99.90
23186;DHT22;11761;51.324;4.590;2023-04-01T14:00:42;10.20;99.90
23186;DHT22;11761;51.324;4.590;2023-04-01T14:06:05;10.20;99.90
23186;DHT22;11761;51.324;4.590;2023-04-01T14:08:51;10.20;99.90
23186;DHT22;11761;51.324;4.590;2023-04-01T14:22:44;10.40;99.90
23186;DHT22;11761;51.324;4.590;2023-04-01T14:42:47;10.50;99.90
23186;DHT22;11761;51.324;4.590;2023-04-01T14:50:47;10.20;99.90
23186;DHT22;11761;51.324;4.590;2023-04-01T14:55:58;10.10;99.90
23186;DHT22;11761;51.324;4.590;2023-04-01T14:58:44;10.00;99.90
23186;DHT22;11761;51.324;4.590;2023-04-01T15:01:37;9.90;99.90
23186;DHT22;11761;51.324;4.590;2023-04-01T15:10:10;9.90;99.90
23186;DHT22;11761;51.324;4.590;2023-04-01T15:12:54;9.90;99.90
23186;DHT22;11761;51.324;4.590;2023-04-01T15:18:21;10.00;99.90
23186;DHT22;11761;51.324;4.590;2023-04-01T15:26:30;9.80;99.90
23186;DHT22;11761;51.324;4.590;2023-04-01T15:37:56;9.60;99.90
23186;DHT22;11761;51.324;4.590;2023-04-01T15:40:33;9.70;99.90
23186;DHT22;11761;51.324;4.590;2023-04-01T15:45:56;9.50;99.90
23186;DHT22;11761;51.324;4.590;2023-04-01T16:02:49;9.50;99.90
23186;DHT22;11761;51.324;4.590;2023-04-01T16:05:36;9.50;99.90
23186;DHT22;11761;51.324;4.590;2023-04-01T16:22:13;9.50;99.90
23186;DHT22;11761;51.324;4.590;2023-04-01T16:24:48;9.50;99.90
23186;DHT22;11761;51.324;4.590;2023-04-01T16:27:56;9.50;99.90
23186;DHT22;11761;51.324;4.590;2023-04-01T16:30:36;9.50;99.90
23186;DHT22;11761;51.324;4.590;2023-04-01T16:33:49;9.50;99.90
23186;DHT22;11761;51.324;4.590;2023-04-01T16:36:36;9.50;99.90
23186;DHT22;11761;51.324;4.590;2023-04-01T16:41:49;9.60;99.90
23186;DHT22;11761;51.324;4.590;2023-04-01T16:44:26;9.60;99.90
23186;DHT22;11761;51.324;4.590;2023-04-01T16:46:59;9.50;99.90
23186;DHT22;11761;51.324;4.590;2023-04-01T16:49:32;9.60;99.90
23186;DHT22;11761;51.324;4.590;2023-04-01T16:54:48;9.60;99.90
23186;DHT22;11761;51.324;4.590;2023-04-01T16:57:42;9.60;99.90
23186;DHT22;11761;51.324;4.590;2023-04-01T17:00:41;9.60;99.90
23186;DHT22;11761;51.324;4.590;2023-04-01T17:03:13;9.50;99.90
23186;DHT22;11761;51.324;4.590;2023-04-01T17:05:52;9.50;99.90
23186;DHT22;11761;51.324;4.590;2023-04-01T17:11:18;9.50;99.90
23186;DHT22;11761;51.324;4.590;2023-04-01T17:14:04;9.50;99.90
23186;DHT22;11761;51.324;4.590;2023-04-01T17:20:12;9.40;99.90
23186;DHT22;11761;51.324;4.590;2023-04-01T17:28:46;9.40;99.90
23186;DHT22;11761;51.324;4.590;2023-04-01T17:31:21;9.40;99.90
23186;DHT22;11761;51.324;4.590;2023-04-01T17:34:29;9.40;99.90
23186;DHT22;11761;51.324;4.590;2023-04-01T17:45:45;9.40;99.90
23186;DHT22;11761;51.324;4.590;2023-04-01T17:51:01;9.40;99.90
23186;DHT22;11761;51.324;4.590;2023-04-01T18:01:56;9.30;99.90
23186;DHT22;11761;51.324;4.590;2023-04-01T18:04:40;9.30;99.90
23186;DHT22;11761;51.324;4.590;2023-04-01T18:07:51;9.30;99.90
23186;DHT22;11761;51.324;4.590;2023-04-01T18:10:28;9.30;99.90
23186;DHT22;11761;51.324;4.590;2023-04-01T18:15:53;9.30;99.90
23186;DHT22;11761;51.324;4.590;2023-04-01T18:18:58;9.30;99.90
23186;DHT22;11761;51.324;4.590;2023-04-01T18:21:47;9.30;99.90
23186;DHT22;11761;51.324;4.590;2023-04-01T18:24:19;9.30;99.90
23186;DHT22;11761;51.324;4.590;2023-04-01T18:29:51;9.30;99.90
23186;DHT22;11761;51.324;4.590;2023-04-01T18:32:35;9.30;99.90
23186;DHT22;11761;51.324;4.590;2023-04-01T18:35:15;9.30;99.90
23186;DHT22;11761;51.324;4.590;2023-04-01T18:37:56;9.30;99.90
23186;DHT22;11761;51.324;4.590;2023-04-01T18:43:21;9.30;99.90
23186;DHT22;11761;51.324;4.590;2023-04-01T18:46:01;9.30;99.90
23186;DHT22;11761;51.324;4.590;2023-04-01T18:48:50;9.30;99.90
23186;DHT22;11761;51.324;4.590;2023-04-01T18:51:24;9.40;99.90
23186;DHT22;11761;51.324;4.590;2023-04-01T18:54:05;9.40;99.90
23186;DHT22;11761;51.324;4.590;2023-04-01T18:56:37;9.40;99.90
23186;DHT22;11761;51.324;4.590;2023-04-01T18:59:26;9.40;99.90
23186;DHT22;11761;51.324;4.590;2023-04-01T19:02:19;9.40;99.90
23186;DHT22;11761;51.324;4.590;2023-04-01T19:13:14;9.50;99.90
23186;DHT22;11761;51.324;4.590;2023-04-01T19:21:19;9.50;99.90
23186;DHT22;11761;51.324;4.590;2023-04-01T19:34:53;9.50;99.90
23186;DHT22;11761;51.324;4.590;2023-04-01T19:37:31;9.50;99.90
23186;DHT22;11761;51.324;4.590;2023-04-01T19:42:59;9.50;99.90
23186;DHT22;11761;51.324;4.590;2023-04-01T19:45:44;9.50;99.90
23186;DHT22;11761;51.324;4.590;2023-04-01T19:53:43;9.40;99.90
23186;DHT22;11761;51.324;4.590;2023-04-01T19:56:20;9.40;99.90
23186;DHT22;11761;51.324;4.590;2023-04-01T19:58:54;9.40;99.90
23186;DHT22;11761;51.324;4.590;2023-04-01T20:01:48;9.40;99.90
23186;DHT22;11761;51.324;4.590;2023-04-01T20:04:42;9.40;99.90
23186;DHT22;11761;51.324;4.590;2023-04-01T20:07:27;9.40;99.90
23186;DHT22;11761;51.324;4.590;2023-04-01T20:12:48;9.30;99.90
23186;DHT22;11761;51.324;4.590;2023-04-01T20:15:44;9.30;99.90
23186;DHT22;11761;51.324;4.590;2023-04-01T20:18:20;9.30;99.90
23186;DHT22;11761;51.324;4.590;2023-04-01T20:21:06;9.30;99.90
23186;DHT22;11761;51.324;4.590;2023-04-01T20:23:52;9.30;99.90
23186;DHT22;11761;51.324;4.590;2023-04-01T20:26:34;9.30;99.90
23186;DHT22;11761;51.324;4.590;2023-04-01T20:29:36;9.20;99.90
23186;DHT22;11761;51.324;4.590;2023-04-01T20:32:21;9.20;99.90
23186;DHT22;11761;51.324;4.590;2023-04-01T20:40:45;9.20;99.90
23186;DHT22;11761;51.324;4.590;2023-04-01T20:43:33;9.10;99.90
23186;DHT22;11761;51.324;4.590;2023-04-01T20:46:32;9.10;99.90
23186;DHT22;11761;51.324;4.590;2023-04-01T20:49:24;9.10;99.90
23186;DHT22;11761;51.324;4.590;2023-04-01T20:57:42;9.10;99.90
23186;DHT22;11761;51.324;4.590;2023-04-01T21:08:36;9.10;99.90
23186;DHT22;11761;51.324;4.590;2023-04-01T21:17:30;9.00;99.90
23186;DHT22;11761;51.324;4.590;2023-04-01T21:22:59;9.00;99.90
23186;DHT22;11761;51.324;4.590;2023-04-01T21:25:56;9.00;99.90
23186;DHT22;11761;51.324;4.590;2023-04-01T21:34:10;8.90;99.90
23186;DHT22;11761;51.324;4.590;2023-04-01T21:39:47;8.90;99.90
23186;DHT22;11761;51.324;4.590;2023-04-01T21:45:18;8.90;99.90
23186;DHT22;11761;51.324;4.590;2023-04-01T21:47:55;8.90;99.90
23186;DHT22;11761;51.324;4.590;2023-04-01T22:02:13;8.80;99.90
23186;DHT22;11761;51.324;4.590;2023-04-01T22:05:51;8.70;99.90
23186;DHT22;11761;51.324;4.590;2023-04-01T22:08:33;8.70;99.90
23186;DHT22;11761;51.324;4.590;2023-04-01T22:14:16;8.70;99.90
23186;DHT22;11761;51.324;4.590;2023-04-01T22:16:57;8.70;99.90
23186;DHT22;11761;51.324;4.590;2023-04-01T22:19:30;8.60;99.90
23186;DHT22;11761;51.324;4.590;2023-04-01T22:22:08;8.60;99.90
23186;DHT22;11761;51.324;4.590;2023-04-01T22:25:03;8.60;99.90
23186;DHT22;11761;51.324;4.590;2023-04-01T22:27:45;8.60;99.90
23186;DHT22;11761;51.324;4.590;2023-04-01T22:30:34;8.50;99.90
23186;DHT22;11761;51.324;4.590;2023-04-01T22:38:33;8.40;99.90
23186;DHT22;11761;51.324;4.590;2023-04-01T22:41:23;8.40;99.90
23186;DHT22;11761;51.324;4.590;2023-04-01T22:43:55;8.40;99.90
23186;DHT22;11761;51.324;4.590;2023-04-01T22:52:14;8.20;99.90
23186;DHT22;11761;51.324;4.590;2023-04-01T22:54:45;8.20;99.90
23186;DHT22;11761;51.324;4.590;2023-04-01T23:03:14;8.10;99.90
23186;DHT22;11761;51.324;4.590;2023-04-01T23:05:57;8.00;99.90
23186;DHT22;11761;51.324;4.590;2023-04-01T23:11:35;7.90;99.90
23186;DHT22;11761;51.324;4.590;2023-04-01T23:20:23;7.90;99.90
23186;DHT22;11761;51.324;4.590;2023-04-01T23:29:30;7.90;99.90
23186;DHT22;11761;51.324;4.590;2023-04-01T23:32:23;7.80;99.90
23186;DHT22;11761;51.324;4.590;2023-04-01T23:35:00;7.80;99.90
23186;DHT22;11761;51.324;4.590;2023-04-01T23:37:33;7.80;99.90
23186;DHT22;11761;51.324;4.590;2023-04-01T23:40:03;7.80;99.90
23186;DHT22;11761;51.324;4.590;2023-04-01T23:42:44;7.80;99.90
23186;DHT22;11761;51.324;4.590;2023-04-01T23:45:18;7.70;99.90
23186;DHT22;11761;51.324;4.590;2023-04-01T23:48:11;7.70;99.90
23186;DHT22;11761;51.324;4.590;2023-04-01T23:50:47;7.70;99.90
23186;DHT22;11761;51.324;4.590;2023-04-01T23:53:24;7.70;99.90
23186;DHT22;11761;51.324;4.590;2023-04-01T23:55:53;7.70;99.90
